Time;durP1;ratioP1;P1;durP2;ratioP2;P2;SDS_P1;SDS_P2;PMS_P1;PMS_P2;Temp;Humidity;BMP_temperature;BMP_pressure;BME280_temperature;BME280_humidity;BME280_pressure;Samples;Min_cycle;Max_cycle;Signal;HPM_P1;HPM_P2
2022/10/30 00:00:55;;;;;;;4.23;1.43;;;16.20;99.20;;;;;;5032199;28;20211;-88
2022/10/30 00:03:22;;;;;;;1.90;1.20;;;16.20;99.30;;;;;;5033510;28;20223;-88
2022/10/30 00:05:51;;;;;;;1.17;1.10;;;16.20;99.30;;;;;;5018141;28;20199;-88
2022/10/30 00:08:21;;;;;;;2.80;1.33;;;16.20;99.30;;;;;;5030385;28;20197;-90
2022/10/30 00:10:49;;;;;;;2.00;1.33;;;16.20;99.30;;;;;;5034538;28;20191;-87
2022/10/30 00:13:16;;;;;;;1.50;1.20;;;16.20;99.40;;;;;;5039934;28;20193;-88
2022/10/30 00:15:48;;;;;;;0.87;0.87;;;16.20;99.40;;;;;;5039344;28;20196;-88
2022/10/30 00:18:16;;;;;;;2.83;1.10;;;16.20;99.40;;;;;;5038124;28;20683;-89
2022/10/30 00:20:43;;;;;;;1.73;0.90;;;16.20;99.40;;;;;;5050109;28;20202;-89
2022/10/30 00:23:12;;;;;;;0.70;0.70;;;16.20;99.50;;;;;;5039535;28;20198;-87
2022/10/30 00:25:39;;;;;;;1.30;0.80;;;16.20;99.50;;;;;;5034056;28;20198;-86
2022/10/30 00:28:07;;;;;;;1.57;0.90;;;16.20;99.50;;;;;;5038354;28;20191;-87
2022/10/30 00:30:35;;;;;;;1.83;1.03;;;16.20;99.50;;;;;;5036231;28;20215;-87
2022/10/30 00:33:03;;;;;;;3.00;1.17;;;16.20;99.50;;;;;;5024226;28;20302;-86
2022/10/30 00:35:30;;;;;;;1.40;0.90;;;16.20;99.50;;;;;;5041728;28;20198;-88
2022/10/30 00:37:58;;;;;;;0.80;0.80;;;16.20;99.60;;;;;;5022409;28;20215;-88
2022/10/30 00:40:26;;;;;;;0.80;0.80;;;16.20;99.60;;;;;;5042704;28;20726;-84
2022/10/30 00:42:55;;;;;;;1.23;0.83;;;16.20;99.60;;;;;;5032108;28;20320;-87
2022/10/30 00:45:22;;;;;;;1.80;0.90;;;16.20;99.60;;;;;;5038973;28;20740;-87
2022/10/30 00:47:54;;;;;;;1.70;1.20;;;16.20;99.60;;;;;;5039076;28;20194;-86
2022/10/30 00:50:25;;;;;;;1.93;1.20;;;16.10;99.60;;;;;;5036307;28;20193;-85
2022/10/30 00:52:56;;;;;;;2.13;1.10;;;16.10;99.60;;;;;;5037915;28;20188;-87
2022/10/30 00:55:29;;;;;;;1.07;0.97;;;16.10;99.70;;;;;;5038133;28;20195;-86
2022/10/30 00:57:58;;;;;;;1.40;0.90;;;16.10;99.70;;;;;;5042426;28;20756;-87
2022/10/30 01:00:29;;;;;;;5.10;1.27;;;16.10;99.80;;;;;;5045672;28;20203;-88
2022/10/30 01:02:57;;;;;;;1.40;1.10;;;16.10;99.80;;;;;;5038956;28;20340;-86
2022/10/30 01:05:27;;;;;;;1.00;0.90;;;16.10;99.90;;;;;;5033348;28;20207;-86
2022/10/30 01:07:54;;;;;;;2.07;1.07;;;16.10;99.90;;;;;;5037580;28;20662;-86
2022/10/30 01:10:22;;;;;;;0.70;0.70;;;16.10;99.90;;;;;;5041815;28;20246;-87
2022/10/30 01:12:53;;;;;;;0.90;0.70;;;16.10;99.90;;;;;;5033323;28;20210;-80
2022/10/30 01:15:26;;;;;;;1.20;1.10;;;16.10;99.90;;;;;;5036166;28;20199;-80
2022/10/30 01:18:23;;;;;;;0.80;0.80;;;16.10;99.90;;;;;;5029843;28;20218;-80
2022/10/30 01:21:11;;;;;;;1.33;1.00;;;16.10;99.90;;;;;;5030286;28;20205;-79
2022/10/30 01:23:48;;;;;;;2.40;1.07;;;16.10;99.90;;;;;;5035625;28;20217;-79
2022/10/30 01:26:26;;;;;;;1.73;1.00;;;16.10;99.90;;;;;;5035988;28;20256;-80
2022/10/30 01:29:11;;;;;;;2.40;1.00;;;16.00;99.90;;;;;;5019907;28;20551;-80
2022/10/30 01:31:51;;;;;;;1.80;1.10;;;16.00;99.90;;;;;;5029602;28;20221;-80
2022/10/30 01:34:26;;;;;;;0.93;0.73;;;16.00;99.90;;;;;;5017015;28;20206;-79
2022/10/30 01:37:01;;;;;;;1.00;0.90;;;16.00;99.90;;;;;;5026097;28;20219;-80
2022/10/30 01:39:32;;;;;;;0.93;0.83;;;16.00;99.90;;;;;;5041022;28;20206;-79
2022/10/30 01:41:59;;;;;;;1.33;1.10;;;16.00;99.90;;;;;;5041913;28;20214;-80
2022/10/30 01:44:31;;;;;;;1.63;1.00;;;16.00;99.90;;;;;;5030580;28;20205;-80
2022/10/30 01:47:22;;;;;;;1.37;0.97;;;16.00;99.90;;;;;;5039660;28;20238;-80
2022/10/30 01:50:13;;;;;;;2.33;1.30;;;16.00;99.90;;;;;;5014466;28;20198;-80
2022/10/30 01:52:49;;;;;;;2.10;1.47;;;16.00;99.90;;;;;;5025618;28;20719;-80
2022/10/30 01:55:29;;;;;;;2.43;1.40;;;15.90;99.90;;;;;;5041212;28;20217;-80
2022/10/30 01:58:02;;;;;;;1.40;1.30;;;15.90;99.90;;;;;;5041427;28;20215;-79
2022/10/30 02:00:31;;;;;;;4.17;1.40;;;15.90;99.90;;;;;;5033432;28;20198;-80
2022/10/30 02:02:58;;;;;;;3.77;1.43;;;15.80;99.90;;;;;;5029906;28;20373;-79
2022/10/30 02:05:31;;;;;;;3.27;1.30;;;15.80;99.90;;;;;;5031986;28;20200;-79
2022/10/30 02:07:59;;;;;;;2.17;1.30;;;15.80;99.90;;;;;;5039446;28;20191;-79
2022/10/30 02:10:27;;;;;;;2.27;1.10;;;15.80;99.90;;;;;;5042511;28;20222;-80
2022/10/30 02:12:54;;;;;;;2.20;1.30;;;15.80;99.90;;;;;;5032968;28;20567;-80
2022/10/30 02:15:24;;;;;;;1.83;1.10;;;15.80;99.90;;;;;;5031132;28;20309;-80
2022/10/30 02:17:54;;;;;;;1.87;1.30;;;15.80;99.90;;;;;;5044895;28;20217;-80
2022/10/30 02:20:24;;;;;;;1.80;1.10;;;15.80;99.90;;;;;;5027872;28;20606;-80
2022/10/30 02:22:52;;;;;;;1.60;1.00;;;15.80;99.90;;;;;;5035350;28;20751;-79
2022/10/30 02:25:19;;;;;;;1.57;1.10;;;15.80;99.90;;;;;;5029271;28;20232;-80
2022/10/30 02:27:47;;;;;;;2.10;1.30;;;15.90;99.90;;;;;;5039499;28;20194;-80
2022/10/30 02:30:14;;;;;;;2.40;1.03;;;15.90;99.90;;;;;;5038780;28;20255;-80
2022/10/30 02:32:41;;;;;;;1.63;1.00;;;15.80;99.90;;;;;;5037920;28;20198;-79
2022/10/30 02:35:09;;;;;;;1.57;1.00;;;15.80;99.90;;;;;;5032013;28;20206;-82
2022/10/30 02:37:38;;;;;;;1.63;1.23;;;15.80;99.90;;;;;;5041758;28;20674;-80
2022/10/30 02:40:07;;;;;;;1.00;0.90;;;15.80;99.90;;;;;;5031849;28;20193;-80
2022/10/30 02:42:34;;;;;;;1.40;1.00;;;15.80;99.90;;;;;;5027235;28;20194;-79
2022/10/30 02:45:01;;;;;;;3.80;1.50;;;15.80;99.90;;;;;;5045766;28;20275;-79
2022/10/30 02:47:29;;;;;;;3.33;1.53;;;15.80;99.90;;;;;;5047312;28;20190;-79
2022/10/30 02:49:56;;;;;;;1.17;1.00;;;15.80;99.90;;;;;;5045302;28;20344;-80
2022/10/30 02:52:23;;;;;;;2.37;1.27;;;15.80;99.90;;;;;;5044114;28;20309;-79
2022/10/30 02:54:53;;;;;;;1.70;1.10;;;15.70;99.90;;;;;;5032775;28;20190;-80
2022/10/30 02:57:20;;;;;;;2.33;1.27;;;15.70;99.90;;;;;;5027973;28;20220;-79
2022/10/30 02:59:47;;;;;;;1.40;1.30;;;15.70;99.90;;;;;;5044810;28;20337;-79
2022/10/30 03:02:14;;;;;;;1.27;1.17;;;15.70;99.90;;;;;;5043472;28;20309;-79
2022/10/30 03:04:42;;;;;;;2.30;1.30;;;15.70;99.90;;;;;;5038089;28;20226;-79
2022/10/30 03:07:11;;;;;;;2.13;1.00;;;15.70;99.90;;;;;;5038259;28;20327;-79
2022/10/30 03:09:38;;;;;;;3.13;1.80;;;15.60;99.90;;;;;;5027362;28;20739;-79
2022/10/30 03:12:07;;;;;;;4.53;1.80;;;16.00;99.90;;;;;;5032068;28;20195;-80
2022/10/30 03:14:35;;;;;;;1.97;1.23;;;15.60;99.90;;;;;;5018047;28;20221;-80
2022/10/30 03:17:04;;;;;;;2.50;1.30;;;15.60;99.90;;;;;;5039889;28;20566;-79
2022/10/30 03:19:31;;;;;;;1.40;1.20;;;15.60;99.90;;;;;;5044857;28;20201;-80
2022/10/30 03:21:58;;;;;;;4.47;1.50;;;15.60;99.90;;;;;;5043995;28;20657;-79
2022/10/30 03:24:25;;;;;;;1.50;1.00;;;15.60;99.90;;;;;;5043228;28;20570;-79
2022/10/30 03:26:52;;;;;;;0.93;0.93;;;15.60;99.90;;;;;;5039454;28;20258;-79
2022/10/30 03:29:21;;;;;;;1.60;0.90;;;15.60;99.90;;;;;;5030663;28;20190;-79
2022/10/30 03:31:49;;;;;;;1.20;1.10;;;15.50;99.90;;;;;;5041338;28;20194;-80
2022/10/30 03:34:19;;;;;;;1.90;1.27;;;15.50;99.90;;;;;;5041304;28;20198;-80
2022/10/30 03:36:47;;;;;;;2.50;1.07;;;15.50;99.90;;;;;;5037681;28;20384;-81
2022/10/30 03:39:14;;;;;;;2.50;1.40;;;15.50;99.90;;;;;;5046224;28;20301;-80
2022/10/30 03:41:43;;;;;;;1.10;1.00;;;15.50;99.90;;;;;;5027918;28;20554;-80
2022/10/30 03:44:12;;;;;;;0.90;0.90;;;15.50;99.90;;;;;;5034510;28;20294;-80
2022/10/30 03:46:41;;;;;;;1.90;1.30;;;15.50;99.90;;;;;;5039107;28;20305;-82
2022/10/30 03:49:19;;;;;;;1.50;1.03;;;15.50;99.90;;;;;;5043588;28;20285;-80
2022/10/30 03:51:46;;;;;;;4.67;1.60;;;15.50;99.90;;;;;;5031319;28;20202;-80
2022/10/30 03:54:14;;;;;;;1.30;1.20;;;15.50;99.90;;;;;;5036308;28;20210;-79
2022/10/30 03:56:41;;;;;;;1.27;1.00;;;15.50;99.90;;;;;;5032842;28;20288;-79
2022/10/30 03:59:12;;;;;;;1.53;1.03;;;15.50;99.90;;;;;;5038993;28;20256;-79
2022/10/30 04:01:42;;;;;;;1.37;0.90;;;15.50;99.90;;;;;;5037496;28;20529;-80
2022/10/30 04:04:10;;;;;;;2.03;1.27;;;15.40;99.90;;;;;;5028986;28;20318;-79
2022/10/30 04:06:37;;;;;;;2.03;1.10;;;15.50;99.90;;;;;;5033086;28;20297;-79
2022/10/30 04:09:06;;;;;;;1.53;1.00;;;15.40;99.90;;;;;;5032356;28;20194;-79
2022/10/30 04:11:39;;;;;;;1.47;1.17;;;15.40;99.90;;;;;;5030875;28;20194;-79
2022/10/30 04:14:07;;;;;;;2.27;1.10;;;15.50;99.90;;;;;;5017917;28;20297;-79
2022/10/30 04:16:34;;;;;;;1.47;1.37;;;15.40;99.90;;;;;;5038578;28;20611;-79
2022/10/30 04:19:04;;;;;;;1.57;1.20;;;15.40;99.90;;;;;;5018550;28;20230;-79
2022/10/30 04:21:31;;;;;;;2.60;1.37;;;15.40;99.90;;;;;;5034890;28;20198;-79
2022/10/30 04:23:58;;;;;;;3.70;1.30;;;15.40;99.90;;;;;;5030769;28;20190;-79
2022/10/30 04:26:28;;;;;;;2.43;1.10;;;15.30;99.90;;;;;;5047031;28;20201;-79
2022/10/30 04:28:56;;;;;;;0.93;0.87;;;15.30;99.90;;;;;;5028870;28;20289;-79
2022/10/30 04:31:23;;;;;;;1.20;1.10;;;15.40;99.90;;;;;;5029948;28;20210;-79
2022/10/30 04:33:51;;;;;;;1.43;1.20;;;15.30;99.90;;;;;;5017853;28;20281;-79
2022/10/30 04:36:20;;;;;;;1.03;1.00;;;15.30;99.90;;;;;;5039719;28;20202;-79
2022/10/30 04:38:47;;;;;;;1.10;1.00;;;15.30;99.90;;;;;;5037962;28;20646;-80
2022/10/30 04:41:15;;;;;;;1.20;1.10;;;15.30;99.90;;;;;;5026892;28;20662;-80
2022/10/30 04:44:05;;;;;;;1.83;1.10;;;15.30;99.90;;;;;;5034481;28;20283;-80
2022/10/30 04:46:33;;;;;;;1.20;1.10;;;15.30;99.90;;;;;;5028004;28;20264;-79
2022/10/30 04:49:08;;;;;;;1.50;1.00;;;15.30;99.90;;;;;;5037552;28;20689;-79
2022/10/30 04:51:37;;;;;;;1.30;0.90;;;15.30;99.90;;;;;;5028918;28;20690;-80
2022/10/30 04:54:06;;;;;;;1.30;1.10;;;15.20;99.90;;;;;;5040963;28;20201;-80
2022/10/30 04:56:33;;;;;;;1.53;1.07;;;15.30;99.90;;;;;;5027388;28;20235;-80
2022/10/30 04:59:01;;;;;;;0.90;0.87;;;15.30;99.90;;;;;;5032243;28;20256;-80
2022/10/30 05:01:28;;;;;;;2.17;1.07;;;15.30;99.90;;;;;;5040335;28;20656;-79
2022/10/30 05:03:57;;;;;;;2.30;1.40;;;15.30;99.90;;;;;;5031069;28;20329;-79
2022/10/30 05:06:28;;;;;;;1.43;1.33;;;15.30;99.90;;;;;;5036800;28;20657;-79
2022/10/30 05:08:57;;;;;;;3.30;1.20;;;15.20;99.90;;;;;;5041389;28;21171;-79
2022/10/30 05:11:31;;;;;;;1.63;1.40;;;15.30;99.90;;;;;;5032547;28;20191;-79
2022/10/30 05:13:58;;;;;;;4.00;1.17;;;15.30;99.90;;;;;;5026611;28;20621;-79
2022/10/30 05:16:26;;;;;;;1.87;1.10;;;15.20;99.90;;;;;;5030523;28;20204;-79
2022/10/30 05:18:55;;;;;;;3.20;1.70;;;15.20;99.90;;;;;;5020330;28;20241;-79
2022/10/30 05:21:22;;;;;;;1.40;1.30;;;15.20;99.90;;;;;;5035923;28;20701;-79
2022/10/30 05:23:49;;;;;;;1.40;1.30;;;15.20;99.90;;;;;;5040304;28;20221;-80
2022/10/30 05:26:19;;;;;;;1.60;1.30;;;15.20;99.90;;;;;;5037786;28;20312;-80
2022/10/30 05:28:46;;;;;;;1.93;1.47;;;15.10;99.90;;;;;;5041285;28;20194;-79
2022/10/30 05:31:13;;;;;;;1.83;1.27;;;15.10;99.90;;;;;;5035754;28;20205;-80
2022/10/30 05:34:01;;;;;;;1.50;1.30;;;15.10;99.90;;;;;;5036028;28;20205;-79
2022/10/30 05:36:28;;;;;;;2.40;1.20;;;15.10;99.90;;;;;;5042364;28;20708;-80
2022/10/30 05:38:56;;;;;;;2.20;1.70;;;15.10;99.90;;;;;;5041668;28;20246;-79
2022/10/30 05:41:46;;;;;;;2.33;1.77;;;15.10;99.90;;;;;;5030788;28;20201;-80
2022/10/30 05:44:13;;;;;;;3.00;1.43;;;15.10;99.90;;;;;;5035616;28;20271;-79
2022/10/30 05:46:43;;;;;;;1.83;1.13;;;15.10;99.90;;;;;;5043094;28;20202;-80
2022/10/30 05:49:31;;;;;;;1.40;1.10;;;15.10;99.90;;;;;;5040409;28;20531;-79
2022/10/30 05:52:00;;;;;;;1.67;1.10;;;15.10;99.90;;;;;;5044367;28;20205;-79
2022/10/30 05:54:28;;;;;;;0.90;0.90;;;15.20;99.90;;;;;;5049363;28;20194;-79
2022/10/30 05:57:07;;;;;;;1.93;1.27;;;15.20;99.90;;;;;;5038670;28;20194;-79
2022/10/30 05:59:37;;;;;;;3.43;2.17;;;15.20;99.90;;;;;;5033249;28;20211;-80
2022/10/30 06:02:04;;;;;;;2.23;1.70;;;15.10;99.90;;;;;;5036010;28;20225;-80
2022/10/30 06:04:31;;;;;;;2.00;1.40;;;15.10;99.90;;;;;;5034435;28;20689;-80
2022/10/30 06:07:01;;;;;;;1.20;1.20;;;15.10;99.90;;;;;;5032386;28;20238;-79
2022/10/30 06:09:28;;;;;;;2.37;1.47;;;15.10;99.90;;;;;;5035468;28;20548;-79
2022/10/30 06:12:15;;;;;;;2.77;1.40;;;15.10;99.90;;;;;;5049378;28;20208;-79
2022/10/30 06:15:06;;;;;;;1.47;1.37;;;15.10;99.90;;;;;;5041253;28;20217;-80
2022/10/30 06:17:33;;;;;;;1.37;1.27;;;15.10;99.90;;;;;;5035410;28;20368;-80
2022/10/30 06:20:13;;;;;;;1.50;1.20;;;15.10;99.90;;;;;;5045576;28;20677;-80
2022/10/30 06:23:07;;;;;;;1.17;1.03;;;15.20;99.90;;;;;;5037734;28;20205;-80
2022/10/30 06:25:57;;;;;;;1.43;1.13;;;15.20;99.90;;;;;;5031392;28;20210;-80
2022/10/30 06:28:35;;;;;;;1.33;1.10;;;15.20;99.90;;;;;;5021633;28;20681;-80
2022/10/30 06:31:02;;;;;;;1.00;1.00;;;15.20;99.90;;;;;;5044340;28;20206;-80
2022/10/30 06:33:31;;;;;;;3.33;1.53;;;15.20;99.90;;;;;;5037770;28;20200;-79
2022/10/30 06:36:00;;;;;;;4.80;1.87;;;15.20;99.90;;;;;;5033066;28;20270;-79
2022/10/30 06:38:27;;;;;;;2.00;1.50;;;15.30;99.90;;;;;;5029624;28;20202;-80
2022/10/30 06:40:55;;;;;;;1.37;1.07;;;15.20;99.90;;;;;;5045760;28;20205;-79
2022/10/30 06:43:32;;;;;;;1.40;1.20;;;15.30;99.90;;;;;;5045881;28;20566;-80
2022/10/30 06:46:06;;;;;;;2.03;1.27;;;15.30;99.90;;;;;;5032878;28;20722;-79
2022/10/30 06:48:35;;;;;;;1.27;1.10;;;15.30;99.90;;;;;;5040485;28;20649;-79
2022/10/30 06:51:02;;;;;;;1.43;1.00;;;15.30;99.90;;;;;;5042250;28;20626;-79
2022/10/30 06:53:33;;;;;;;1.00;1.00;;;15.30;99.90;;;;;;5029567;28;20561;-79
2022/10/30 06:56:20;;;;;;;1.40;1.20;;;15.30;99.90;;;;;;5011718;28;20750;-79
2022/10/30 06:59:04;;;;;;;1.63;1.40;;;15.30;99.90;;;;;;5043445;28;20214;-79
2022/10/30 07:01:38;;;;;;;1.70;1.40;;;15.40;99.90;;;;;;5040325;28;20548;-80
2022/10/30 07:04:17;;;;;;;1.67;1.13;;;15.40;99.90;;;;;;5036397;28;20730;-80
2022/10/30 07:06:45;;;;;;;1.60;1.50;;;15.40;99.90;;;;;;5034512;28;20195;-80
2022/10/30 07:09:12;;;;;;;1.83;1.70;;;15.40;99.90;;;;;;5040096;28;20189;-80
2022/10/30 07:11:44;;;;;;;1.57;1.43;;;15.40;99.90;;;;;;5045932;28;20763;-79
2022/10/30 07:14:21;;;;;;;3.47;1.83;;;15.40;99.90;;;;;;5033707;28;20201;-80
2022/10/30 07:17:08;;;;;;;1.80;1.60;;;15.40;99.90;;;;;;5040055;28;20567;-79
2022/10/30 07:19:36;;;;;;;2.07;1.50;;;15.50;99.90;;;;;;5015620;28;20210;-78
2022/10/30 07:22:04;;;;;;;3.50;1.60;;;15.50;99.90;;;;;;5019869;28;20542;-79
2022/10/30 07:24:33;;;;;;;2.10;1.90;;;15.50;99.90;;;;;;5029622;28;20247;-79
2022/10/30 07:27:10;;;;;;;5.50;4.30;;;15.50;99.90;;;;;;5042125;28;20202;-79
2022/10/30 07:29:42;;;;;;;5.07;3.60;;;15.50;99.90;;;;;;5041991;28;20558;-79
2022/10/30 07:32:28;;;;;;;4.03;3.20;;;15.50;99.90;;;;;;5041255;28;20233;-79
2022/10/30 07:35:28;;;;;;;4.30;3.00;;;15.50;99.90;;;;;;4991666;28;20206;-79
2022/10/30 07:38:02;;;;;;;4.17;3.10;;;15.50;99.90;;;;;;5042235;28;20236;-79
2022/10/30 07:40:40;;;;;;;2.97;2.73;;;15.50;99.90;;;;;;5043392;28;20214;-78
2022/10/30 07:43:15;;;;;;;4.33;2.43;;;15.50;99.90;;;;;;5040080;28;20198;-78
2022/10/30 07:46:02;;;;;;;6.30;2.43;;;15.60;99.90;;;;;;5027179;28;20209;-79
2022/10/30 07:48:40;;;;;;;4.67;3.00;;;15.60;99.90;;;;;;5039823;28;20216;-79
2022/10/30 07:51:19;;;;;;;2.53;2.30;;;15.60;99.90;;;;;;5034564;28;20202;-80
2022/10/30 07:53:46;;;;;;;3.93;2.90;;;15.60;99.90;;;;;;5037591;28;20213;-80
2022/10/30 07:56:13;;;;;;;5.20;2.87;;;15.60;99.90;;;;;;5029451;28;20209;-79
2022/10/30 07:59:10;;;;;;;5.57;3.20;;;15.60;99.90;;;;;;5012848;28;20738;-80
2022/10/30 08:02:10;;;;;;;5.67;3.53;;;15.60;99.90;;;;;;5004577;28;20718;-80
2022/10/30 08:04:59;;;;;;;4.23;3.20;;;15.60;99.90;;;;;;5048246;28;20670;-79
2022/10/30 08:07:39;;;;;;;3.90;2.93;;;15.60;99.90;;;;;;5030366;28;20206;-80
2022/10/30 08:10:08;;;;;;;3.13;2.43;;;15.60;99.90;;;;;;5029179;28;20281;-80
2022/10/30 08:12:37;;;;;;;2.77;2.37;;;15.70;99.90;;;;;;5020190;28;20198;-79
2022/10/30 08:15:05;;;;;;;2.40;2.20;;;15.70;99.90;;;;;;5031127;28;20204;-79
2022/10/30 08:17:32;;;;;;;3.53;2.37;;;15.80;99.90;;;;;;5035472;28;20201;-79
2022/10/30 08:20:01;;;;;;;3.13;2.50;;;15.80;99.90;;;;;;5040556;28;20228;-79
2022/10/30 08:22:28;;;;;;;2.33;2.10;;;15.90;99.90;;;;;;5041899;28;20693;-79
2022/10/30 08:25:00;;;;;;;4.20;2.20;;;16.00;99.90;;;;;;5037431;28;20232;-79
2022/10/30 08:27:30;;;;;;;2.93;1.93;;;16.10;99.90;;;;;;5030744;28;20272;-79
2022/10/30 08:29:58;;;;;;;2.67;1.93;;;16.10;99.90;;;;;;5041055;28;20200;-79
2022/10/30 08:32:25;;;;;;;1.73;1.63;;;16.20;99.90;;;;;;5019430;28;20287;-79
2022/10/30 08:35:12;;;;;;;2.73;1.83;;;16.20;99.90;;;;;;5036383;28;20209;-79
2022/10/30 08:37:39;;;;;;;3.07;1.50;;;16.30;99.90;;;;;;5037751;28;20198;-79
2022/10/30 08:40:08;;;;;;;2.30;1.70;;;16.30;99.90;;;;;;5028667;28;20222;-79
2022/10/30 08:43:01;;;;;;;1.33;1.23;;;16.40;99.90;;;;;;5035047;28;20705;-79
2022/10/30 08:45:28;;;;;;;2.00;1.73;;;16.40;99.90;;;;;;5028155;28;20210;-78
2022/10/30 08:48:12;;;;;;;1.63;1.53;;;16.50;99.90;;;;;;5036493;28;20704;-79
2022/10/30 08:50:44;;;;;;;1.50;1.40;;;16.50;99.90;;;;;;5029052;28;20199;-79
2022/10/30 08:53:15;;;;;;;2.10;1.77;;;16.50;99.90;;;;;;5043269;28;20566;-80
2022/10/30 08:55:47;;;;;;;3.13;1.73;;;16.60;99.90;;;;;;5034761;28;20202;-80
2022/10/30 08:58:23;;;;;;;2.40;1.27;;;16.60;99.90;;;;;;5025105;28;20225;-79
2022/10/30 09:00:50;;;;;;;2.53;1.13;;;16.60;99.90;;;;;;5038881;28;20593;-79
2022/10/30 09:03:17;;;;;;;1.57;1.20;;;16.60;99.90;;;;;;5036827;28;20226;-79
2022/10/30 09:06:05;;;;;;;1.40;1.30;;;16.70;99.90;;;;;;5035701;28;20209;-80
2022/10/30 09:08:35;;;;;;;1.47;1.37;;;16.70;99.90;;;;;;5031812;28;20637;-80
2022/10/30 09:11:08;;;;;;;2.83;2.30;;;16.70;99.90;;;;;;5034358;28;20197;-80
2022/10/30 09:13:36;;;;;;;1.70;1.60;;;16.70;99.90;;;;;;5040437;28;20461;-79
2022/10/30 09:16:06;;;;;;;1.90;1.60;;;16.80;99.90;;;;;;5031204;28;20195;-78
2022/10/30 09:18:37;;;;;;;1.57;1.47;;;16.80;99.90;;;;;;5026295;28;20259;-80
2022/10/30 09:21:07;;;;;;;2.50;1.50;;;16.90;99.90;;;;;;5029298;28;20247;-80
2022/10/30 09:23:39;;;;;;;1.10;1.10;;;16.90;99.90;;;;;;5048324;28;20203;-80
2022/10/30 09:26:25;;;;;;;1.20;1.00;;;16.90;99.90;;;;;;5048215;28;20650;-80
2022/10/30 09:29:00;;;;;;;1.10;0.93;;;17.00;99.90;;;;;;5023331;28;20200;-78
2022/10/30 09:31:45;;;;;;;0.93;0.93;;;17.00;99.90;;;;;;5050110;28;20204;-80
2022/10/30 09:34:17;;;;;;;1.73;1.20;;;17.00;99.90;;;;;;5034829;28;20230;-80
2022/10/30 09:37:25;;;;;;;1.30;1.20;;;17.10;99.90;;;;;;5025390;28;20569;-80
2022/10/30 09:39:56;;;;;;;1.13;0.90;;;17.10;99.90;;;;;;5047538;28;20222;-80
2022/10/30 09:42:41;;;;;;;3.90;1.40;;;17.10;99.90;;;;;;5031435;28;20198;-81
2022/10/30 09:45:40;;;;;;;0.97;0.90;;;17.10;99.90;;;;;;5049808;28;20548;-79
2022/10/30 09:48:45;;;;;;;1.67;1.07;;;17.20;99.90;;;;;;5015903;28;20200;-81
2022/10/30 09:51:35;;;;;;;2.40;1.47;;;17.20;99.90;;;;;;4989937;28;20238;-80
2022/10/30 09:54:15;;;;;;;1.20;1.10;;;17.20;99.90;;;;;;5042427;28;20566;-80
2022/10/30 09:56:53;;;;;;;2.50;1.53;;;17.20;99.90;;;;;;5032523;28;20293;-80
2022/10/30 09:59:31;;;;;;;1.50;1.00;;;17.10;99.90;;;;;;5036293;28;20294;-81
2022/10/30 10:02:04;;;;;;;0.90;0.90;;;17.10;99.90;;;;;;5032286;28;20679;-81
2022/10/30 10:04:39;;;;;;;1.00;1.00;;;17.10;99.90;;;;;;5028970;28;20296;-80
2022/10/30 10:07:32;;;;;;;1.40;1.02;;;17.10;99.90;;;;;;5034671;28;20634;-80
2022/10/30 10:10:16;;;;;;;1.30;1.20;;;17.10;99.90;;;;;;5036966;28;20261;-80
2022/10/30 10:12:50;;;;;;;1.37;1.20;;;17.10;99.90;;;;;;5032305;28;20246;-81
2022/10/30 10:15:28;;;;;;;1.30;1.20;;;17.10;99.90;;;;;;5041712;28;20197;-83
2022/10/30 10:17:56;;;;;;;1.30;1.07;;;17.10;99.90;;;;;;5033446;28;20209;-81
2022/10/30 10:20:32;;;;;;;1.57;1.20;;;17.10;99.90;;;;;;5023479;28;20283;-81
2022/10/30 10:23:02;;;;;;;1.80;1.13;;;17.10;99.90;;;;;;5032203;28;20197;-81
2022/10/30 10:25:31;;;;;;;1.60;0.90;;;17.00;99.90;;;;;;5018747;28;20288;-82
2022/10/30 10:28:07;;;;;;;0.80;0.80;;;17.00;99.90;;;;;;5038598;28;20204;-81
2022/10/30 10:30:46;;;;;;;0.80;0.80;;;17.00;99.90;;;;;;5022884;28;20214;-81
2022/10/30 10:33:47;;;;;;;0.77;0.77;;;17.00;99.90;;;;;;5031123;28;20192;-82
2022/10/30 10:36:24;;;;;;;0.90;0.90;;;17.00;99.90;;;;;;5039656;28;20525;-82
2022/10/30 10:39:05;;;;;;;1.43;1.10;;;17.00;99.90;;;;;;5025472;28;20569;-82
2022/10/30 10:41:50;;;;;;;2.43;1.30;;;17.00;99.90;;;;;;5043756;28;20207;-81
2022/10/30 10:44:28;;;;;;;1.10;0.97;;;17.00;99.90;;;;;;5040687;28;20198;-81
2022/10/30 10:47:07;;;;;;;1.43;0.90;;;17.00;99.90;;;;;;5031971;28;20219;-81
2022/10/30 10:49:57;;;;;;;0.80;0.80;;;17.00;99.90;;;;;;5045693;28;20188;-81
2022/10/30 10:52:36;;;;;;;2.27;1.10;;;17.00;99.90;;;;;;5035350;28;20276;-81
2022/10/30 10:55:07;;;;;;;1.17;1.07;;;17.00;99.90;;;;;;5038327;28;20669;-81
2022/10/30 10:57:38;;;;;;;1.17;1.00;;;17.00;99.90;;;;;;5038165;28;20198;-80
2022/10/30 11:00:07;;;;;;;1.10;1.10;;;17.00;99.90;;;;;;5017158;28;20215;-82
2022/10/30 11:02:40;;;;;;;0.87;0.87;;;17.00;99.90;;;;;;5029832;28;20660;-80
2022/10/30 11:05:14;;;;;;;2.30;1.40;;;17.00;99.90;;;;;;5037465;28;20210;-81
2022/10/30 11:07:47;;;;;;;1.57;1.27;;;17.00;99.90;;;;;;5026838;28;20206;-81
2022/10/30 11:10:16;;;;;;;1.55;1.40;;;17.00;99.90;;;;;;5032464;28;20531;-82
2022/10/30 11:12:44;;;;;;;1.50;1.40;;;17.00;99.90;;;;;;5019834;28;20193;-82
2022/10/30 11:15:37;;;;;;;1.33;1.00;;;17.00;99.90;;;;;;5041730;28;20189;-81
2022/10/30 11:18:06;;;;;;;1.50;1.27;;;17.00;99.90;;;;;;5032363;28;20193;-80
2022/10/30 11:20:40;;;;;;;2.83;1.63;;;17.00;99.90;;;;;;5047418;28;20220;-81
2022/10/30 11:23:32;;;;;;;1.50;1.40;;;17.00;99.90;;;;;;5039208;28;20544;-79
2022/10/30 11:25:59;;;;;;;1.50;1.40;;;17.00;99.90;;;;;;5037523;28;20189;-80
2022/10/30 11:28:40;;;;;;;2.40;1.33;;;17.00;99.90;;;;;;5044563;28;20222;-80
2022/10/30 11:31:18;;;;;;;1.50;1.40;;;17.00;99.90;;;;;;5047966;28;20283;-81
2022/10/30 11:33:46;;;;;;;1.20;1.10;;;17.00;99.90;;;;;;5040713;28;20199;-81
2022/10/30 11:36:16;;;;;;;1.50;1.33;;;17.00;99.90;;;;;;5047884;28;20588;-81
2022/10/30 11:38:43;;;;;;;1.37;1.00;;;17.00;99.90;;;;;;5029090;28;20209;-81
2022/10/30 11:41:11;;;;;;;1.50;1.20;;;17.00;99.90;;;;;;5023639;28;20210;-81
2022/10/30 11:43:41;;;;;;;1.00;1.00;;;17.00;99.90;;;;;;5042219;28;20205;-81
2022/10/30 11:46:12;;;;;;;3.63;1.10;;;17.10;99.90;;;;;;5039145;28;20202;-81
2022/10/30 11:48:44;;;;;;;1.20;1.10;;;17.10;99.90;;;;;;5033787;28;20199;-82
2022/10/30 11:51:13;;;;;;;1.30;1.20;;;17.10;99.90;;;;;;5047588;28;20196;-81
2022/10/30 11:53:49;;;;;;;1.23;1.13;;;17.10;99.90;;;;;;5039634;28;20592;-81
2022/10/30 11:56:19;;;;;;;1.65;1.40;;;17.10;99.90;;;;;;5029456;28;20204;-81
2022/10/30 11:58:54;;;;;;;1.83;1.43;;;17.10;99.90;;;;;;5029205;28;20200;-79
2022/10/30 12:01:23;;;;;;;1.20;1.17;;;17.10;99.90;;;;;;5042018;28;20250;-81
2022/10/30 12:03:51;;;;;;;1.60;1.50;;;17.10;99.90;;;;;;5032290;28;20258;-81
2022/10/30 12:06:20;;;;;;;1.30;1.20;;;17.10;99.90;;;;;;5040542;28;20207;-81
2022/10/30 12:09:10;;;;;;;1.57;1.30;;;17.10;99.90;;;;;;5033669;28;20222;-81
2022/10/30 12:11:42;;;;;;;1.77;1.40;;;17.10;99.90;;;;;;5034662;28;20214;-81
2022/10/30 12:14:18;;;;;;;2.03;1.30;;;17.10;99.90;;;;;;5036288;28;20251;-82
2022/10/30 12:16:48;;;;;;;1.58;1.48;;;17.10;99.90;;;;;;5020789;28;20203;-80
2022/10/30 12:19:16;;;;;;;2.07;1.67;;;17.10;99.90;;;;;;5031332;28;20200;-81
2022/10/30 12:21:46;;;;;;;1.40;1.30;;;17.10;99.90;;;;;;5036259;28;20219;-79
2022/10/30 12:24:18;;;;;;;1.60;1.50;;;17.10;99.90;;;;;;5034979;28;20206;-81
2022/10/30 12:26:49;;;;;;;3.47;1.97;;;17.10;99.90;;;;;;5034126;28;20198;-80
2022/10/30 12:29:21;;;;;;;1.57;1.47;;;17.10;99.90;;;;;;5016859;28;20195;-80
2022/10/30 12:31:55;;;;;;;1.60;1.50;;;17.10;99.90;;;;;;5038011;28;20655;-82
2022/10/30 12:34:33;;;;;;;1.87;1.47;;;17.00;99.90;;;;;;5032652;28;20199;-81
2022/10/30 12:37:06;;;;;;;2.20;1.27;;;17.00;99.90;;;;;;5035780;28;20547;-81
2022/10/30 12:39:47;;;;;;;2.10;1.80;;;17.00;99.90;;;;;;5023919;28;20293;-81
2022/10/30 12:42:16;;;;;;;2.37;1.47;;;17.00;99.90;;;;;;5031819;28;20208;-80
2022/10/30 12:44:53;;;;;;;1.42;1.30;;;17.00;99.90;;;;;;5040206;28;20201;-81
2022/10/30 12:47:27;;;;;;;2.23;1.50;;;17.00;99.90;;;;;;5029561;28;20233;-81
2022/10/30 12:50:00;;;;;;;2.60;1.80;;;17.00;99.90;;;;;;5041399;28;20268;-80
2022/10/30 12:52:34;;;;;;;2.07;1.87;;;17.00;99.90;;;;;;5042107;28;20247;-80
2022/10/30 12:55:08;;;;;;;2.13;1.93;;;17.00;99.90;;;;;;5040417;28;20186;-80
2022/10/30 12:57:40;;;;;;;1.60;1.50;;;17.00;99.90;;;;;;5031878;28;20528;-80
2022/10/30 13:00:14;;;;;;;1.67;1.57;;;17.10;99.90;;;;;;5043375;28;20203;-80
2022/10/30 13:02:50;;;;;;;1.30;1.20;;;17.10;99.90;;;;;;5034689;28;20294;-80
2022/10/30 13:05:28;;;;;;;2.53;1.20;;;17.10;99.90;;;;;;5037792;28;20202;-81
2022/10/30 13:08:12;;;;;;;1.17;1.10;;;17.10;99.90;;;;;;5034166;28;20535;-81
2022/10/30 13:10:44;;;;;;;1.90;1.63;;;17.10;99.90;;;;;;5045380;28;20197;-81
2022/10/30 13:13:16;;;;;;;1.60;1.43;;;17.10;99.90;;;;;;5034345;28;20201;-81
2022/10/30 13:15:50;;;;;;;1.60;1.50;;;17.00;99.90;;;;;;5017433;28;20210;-81
2022/10/30 13:18:19;;;;;;;1.23;1.20;;;17.00;99.90;;;;;;5037170;28;20201;-80